createdAt,value
2022-10-23T00:02:02.541Z,66.94
2022-10-23T00:04:30.189Z,67.43
2022-10-23T00:06:57.460Z,67.52
2022-10-23T00:09:25.403Z,67.37
2022-10-23T00:11:53.742Z,67.34
2022-10-23T00:14:24.946Z,66.97
2022-10-23T00:16:52.449Z,66.56
2022-10-23T00:19:19.779Z,66.76
2022-10-23T00:21:47.156Z,67.32
2022-10-23T00:24:14.599Z,67.16
2022-10-23T00:26:42.389Z,67.70
2022-10-23T00:29:10.917Z,67.23
2022-10-23T00:31:39.067Z,67.27
2022-10-23T00:34:08.451Z,67.08
2022-10-23T00:36:36.971Z,67.39
2022-10-23T00:39:05.615Z,66.97
2022-10-23T00:41:32.926Z,66.67
2022-10-23T00:44:09.315Z,67.89
2022-10-23T00:46:39.596Z,67.22
2022-10-23T00:49:09.418Z,66.95
2022-10-23T00:51:47.849Z,67.12
2022-10-23T00:54:24.324Z,66.69
2022-10-23T00:56:58.065Z,67.36
2022-10-23T00:59:27.623Z,67.39
2022-10-23T01:01:55.833Z,67.36
2022-10-23T01:04:26.008Z,67.65
2022-10-23T01:07:32.820Z,67.52
2022-10-23T01:10:26.720Z,67.60
2022-10-23T01:13:34.428Z,67.26
2022-10-23T01:16:26.889Z,67.44
2022-10-23T01:19:20.394Z,67.55
2022-10-23T01:22:02.555Z,67.72
2022-10-23T01:24:52.626Z,67.67
2022-10-23T01:27:39.856Z,67.34
2022-10-23T01:30:19.085Z,67.96
2022-10-23T01:33:37.453Z,68.12
2022-10-23T01:36:13.459Z,67.91
2022-10-23T01:39:10.841Z,68.05
2022-10-23T01:41:58.072Z,68.39
2022-10-23T01:44:57.236Z,68.58
2022-10-23T01:47:31.164Z,68.22
2022-10-23T01:50:00.043Z,68.34
2022-10-23T01:52:27.748Z,68.84
2022-10-23T01:55:00.403Z,68.00
2022-10-23T01:57:32.989Z,68.45
2022-10-23T02:00:12.441Z,68.64
2022-10-23T02:02:42.429Z,68.96
2022-10-23T02:05:29.054Z,68.39
2022-10-23T02:07:57.292Z,69.13
2022-10-23T02:11:00.638Z,69.26
2022-10-23T02:14:01.850Z,69.23
2022-10-23T02:16:53.235Z,69.22
2022-10-23T02:19:56.397Z,69.33
2022-10-23T02:22:30.490Z,69.04
2022-10-23T02:25:20.703Z,68.94
2022-10-23T02:27:54.919Z,68.91
2022-10-23T02:30:22.552Z,68.55
2022-10-23T02:32:54.756Z,68.85
2022-10-23T02:35:24.837Z,68.96
2022-10-23T02:38:00.440Z,68.62
2022-10-23T02:40:43.048Z,68.51
2022-10-23T02:43:29.079Z,68.81
2022-10-23T02:46:50.005Z,68.63
2022-10-23T02:50:23.057Z,68.36
2022-10-23T02:53:22.496Z,68.41
2022-10-23T02:56:57.031Z,68.85
2022-10-23T02:59:43.981Z,68.33
2022-10-23T03:03:09.304Z,68.23
2022-10-23T03:05:41.456Z,68.32
2022-10-23T03:08:11.820Z,68.43
2022-10-23T03:10:40.763Z,68.94
2022-10-23T03:13:10.801Z,69.10
2022-10-23T03:15:38.367Z,69.52
2022-10-23T03:18:05.704Z,69.36
2022-10-23T03:20:32.973Z,69.52
2022-10-23T03:23:00.324Z,69.55
2022-10-23T03:25:28.486Z,69.08
2022-10-23T03:27:55.820Z,69.36
2022-10-23T03:30:24.024Z,69.34
2022-10-23T03:32:51.309Z,69.46
2022-10-23T03:35:18.580Z,69.14
2022-10-23T03:37:45.987Z,68.91
2022-10-23T03:40:13.360Z,69.13
2022-10-23T03:42:40.632Z,69.40
2022-10-23T03:45:08.789Z,69.06
2022-10-23T03:47:41.119Z,69.62
2022-10-23T03:50:10.985Z,69.15
2022-10-23T03:52:38.293Z,69.35
2022-10-23T03:55:07.100Z,69.07
2022-10-23T03:57:34.375Z,69.45
2022-10-23T04:00:01.913Z,69.54
2022-10-23T04:02:29.319Z,69.77
2022-10-23T04:04:56.633Z,69.97
2022-10-23T04:07:24.076Z,69.54
2022-10-23T04:09:52.760Z,69.58
2022-10-23T04:12:20.026Z,69.50
2022-10-23T04:14:47.275Z,69.63
2022-10-23T04:17:14.577Z,69.63
2022-10-23T04:19:41.879Z,69.53
2022-10-23T04:22:09.150Z,69.37
2022-10-23T04:24:36.405Z,69.10
2022-10-23T04:27:04.927Z,69.65
2022-10-23T04:29:32.532Z,69.78
2022-10-23T04:31:59.783Z,69.36
2022-10-23T04:34:27.042Z,69.65
2022-10-23T04:36:54.297Z,69.68
2022-10-23T04:39:21.603Z,69.88
2022-10-23T04:41:48.957Z,69.81
2022-10-23T04:44:16.425Z,69.64
2022-10-23T04:46:43.676Z,69.23
2022-10-23T04:49:10.952Z,69.27
2022-10-23T04:51:38.542Z,69.29
2022-10-23T04:54:05.867Z,69.19
2022-10-23T04:56:33.128Z,69.11
2022-10-23T04:59:00.777Z,68.90
2022-10-23T05:01:28.154Z,69.35
2022-10-23T05:03:56.738Z,69.38
2022-10-23T05:06:24.001Z,69.21
2022-10-23T05:08:51.354Z,69.74
2022-10-23T05:11:18.947Z,70.04
2022-10-23T05:13:46.306Z,69.71
2022-10-23T05:17:09.362Z,69.74
2022-10-23T05:19:51.487Z,69.76
2022-10-23T05:22:24.003Z,70.04
2022-10-23T05:24:51.784Z,69.58
2022-10-23T05:27:19.117Z,69.30
2022-10-23T05:29:46.397Z,70.11
2022-10-23T05:32:16.256Z,69.96
2022-10-23T05:34:43.992Z,70.59
2022-10-23T05:37:16.016Z,70.42
2022-10-23T05:39:43.581Z,70.00
2022-10-23T05:42:10.960Z,70.23
2022-10-23T05:44:38.352Z,70.16
2022-10-23T05:47:06.765Z,70.64
2022-10-23T05:49:34.147Z,70.08
2022-10-23T05:52:01.402Z,70.37
2022-10-23T05:54:28.673Z,69.87
2022-10-23T05:56:56.841Z,70.17
2022-10-23T05:59:24.112Z,70.11
2022-10-23T06:01:51.439Z,70.01
2022-10-23T06:04:18.757Z,69.80
2022-10-23T06:06:47.330Z,70.19
2022-10-23T06:09:16.396Z,70.20
2022-10-23T06:11:44.518Z,70.39
2022-10-23T06:14:11.800Z,70.48
2022-10-23T06:16:39.069Z,70.44
2022-10-23T06:19:10.157Z,70.61
2022-10-23T06:21:39.560Z,70.49
2022-10-23T06:24:08.097Z,70.03
2022-10-23T06:26:35.656Z,70.19
2022-10-23T06:29:03.268Z,70.49
2022-10-23T06:31:30.692Z,69.69
2022-10-23T06:33:59.853Z,70.35
2022-10-23T06:36:27.617Z,70.39
2022-10-23T06:38:56.398Z,70.35
2022-10-23T06:41:23.884Z,70.05
2022-10-23T06:43:51.948Z,70.00
2022-10-23T06:46:20.292Z,70.20
2022-10-23T06:48:48.160Z,70.51
2022-10-23T06:51:17.560Z,69.97
2022-10-23T06:53:46.181Z,70.13
2022-10-23T06:56:13.820Z,70.17
2022-10-23T06:58:42.136Z,69.74
2022-10-23T07:01:14.065Z,70.11
2022-10-23T07:03:41.809Z,69.99
2022-10-23T07:06:11.095Z,69.97
2022-10-23T07:08:38.992Z,69.84
2022-10-23T07:11:10.740Z,70.07
2022-10-23T07:13:40.548Z,69.86
2022-10-23T07:16:21.948Z,69.57
2022-10-23T07:18:59.608Z,68.85
2022-10-23T07:21:35.149Z,69.07
2022-10-23T07:24:04.408Z,68.62
2022-10-23T07:26:32.911Z,68.21
2022-10-23T07:29:00.301Z,68.47
2022-10-23T07:31:28.463Z,68.35
2022-10-23T07:33:55.915Z,68.10
2022-10-23T07:36:23.221Z,67.88
2022-10-23T07:38:52.150Z,67.49
2022-10-23T07:41:19.656Z,67.33
2022-10-23T07:43:46.969Z,67.17
2022-10-23T07:46:14.660Z,66.83
2022-10-23T07:48:41.934Z,67.02
2022-10-23T07:51:15.585Z,66.41
2022-10-23T07:53:43.848Z,66.49
2022-10-23T07:56:18.484Z,66.30
2022-10-23T07:58:45.944Z,65.90
2022-10-23T08:01:50.558Z,65.58
2022-10-23T08:04:21.432Z,65.56
2022-10-23T08:06:49.911Z,65.54
2022-10-23T08:09:17.467Z,65.07
2022-10-23T08:11:44.748Z,64.71
2022-10-23T08:14:14.840Z,64.12
2022-10-23T08:16:42.112Z,63.98
2022-10-23T08:19:10.759Z,64.12
2022-10-23T08:21:38.580Z,64.03
2022-10-23T08:24:06.500Z,63.76
2022-10-23T08:26:33.908Z,63.35
2022-10-23T08:29:01.682Z,63.22
2022-10-23T08:31:28.988Z,62.70
2022-10-23T08:33:56.281Z,62.67
2022-10-23T08:36:29.304Z,62.74
2022-10-23T08:38:58.605Z,62.15
2022-10-23T08:41:42.973Z,62.26
2022-10-23T08:44:57.265Z,61.72
2022-10-23T08:47:44.400Z,61.72
2022-10-23T08:50:42.546Z,61.79
2022-10-23T08:53:52.885Z,61.39
2022-10-23T08:56:38.233Z,62.00
2022-10-23T08:59:33.308Z,61.15
2022-10-23T09:02:29.564Z,61.32
2022-10-23T09:04:58.658Z,61.12
2022-10-23T09:08:25.937Z,60.82
2022-10-23T09:11:35.969Z,60.80
2022-10-23T09:14:50.171Z,60.65
2022-10-23T09:17:29.869Z,60.39
2022-10-23T09:20:31.893Z,60.45
2022-10-23T09:23:24.197Z,60.44
2022-10-23T09:25:57.026Z,59.85
2022-10-23T09:28:33.444Z,58.82
2022-10-23T09:31:12.791Z,59.22
2022-10-23T09:33:40.915Z,59.48
2022-10-23T09:36:23.441Z,59.06
2022-10-23T09:38:55.649Z,59.12
2022-10-23T09:41:39.885Z,58.73
2022-10-23T09:44:33.196Z,58.83
2022-10-23T09:47:12.027Z,58.01
2022-10-23T09:49:56.954Z,58.00
2022-10-23T09:52:36.791Z,57.51
2022-10-23T09:55:24.895Z,56.81
2022-10-23T09:57:53.891Z,57.29
2022-10-23T10:00:27.664Z,57.04
2022-10-23T10:03:22.674Z,56.54
2022-10-23T10:06:04.537Z,56.29
2022-10-23T10:08:51.686Z,56.22
2022-10-23T10:11:47.663Z,56.10
2022-10-23T10:15:22.385Z,55.99
2022-10-23T10:18:29.708Z,54.81
2022-10-23T10:22:04.779Z,54.05
2022-10-23T10:25:26.161Z,53.98
2022-10-23T10:29:19.959Z,53.28
2022-10-23T10:32:34.877Z,52.78
2022-10-23T10:40:02.839Z,50.70
2022-10-23T10:43:39.022Z,49.85
2022-10-23T10:46:55.057Z,49.20
2022-10-23T10:49:40.568Z,49.07
2022-10-23T10:52:43.223Z,48.65
2022-10-23T10:55:38.761Z,48.69
2022-10-23T10:58:45.360Z,49.44
2022-10-23T11:01:53.435Z,50.34
2022-10-23T11:05:14.985Z,50.78
2022-10-23T11:08:07.607Z,51.66
2022-10-23T11:10:46.072Z,50.50
2022-10-23T11:13:42.072Z,49.56
2022-10-23T11:16:31.305Z,48.44
2022-10-23T11:19:57.952Z,47.15
2022-10-23T11:22:57.592Z,46.49
2022-10-23T11:26:46.773Z,46.86
2022-10-23T11:30:20.613Z,46.14
2022-10-23T11:33:53.962Z,44.89
2022-10-23T11:36:58.405Z,44.94
2022-10-23T11:39:33.884Z,44.63
2022-10-23T11:42:29.351Z,44.64
2022-10-23T11:44:56.648Z,45.59
2022-10-23T11:47:40.584Z,46.57
2022-10-23T11:50:07.753Z,47.95
2022-10-23T11:53:14.778Z,47.83
2022-10-23T11:56:12.601Z,48.23
2022-10-23T11:58:56.924Z,49.63
2022-10-23T12:01:52.151Z,49.40
2022-10-23T12:04:30.778Z,49.44
2022-10-23T12:07:05.305Z,50.22
2022-10-23T12:09:47.041Z,50.56
2022-10-23T12:12:40.599Z,51.14
2022-10-23T12:15:18.822Z,51.18
2022-10-23T12:17:49.381Z,50.88
2022-10-23T12:20:49.467Z,51.01
2022-10-23T12:23:55.128Z,51.17
2022-10-23T12:27:04.460Z,50.73
2022-10-23T12:30:04.598Z,50.57
2022-10-23T12:33:23.493Z,50.74
2022-10-23T12:36:44.252Z,50.63
2022-10-23T12:39:38.256Z,50.65
2022-10-23T12:42:28.417Z,50.81
2022-10-23T12:45:11.537Z,50.31
2022-10-23T12:47:39.479Z,49.74
2022-10-23T12:50:27.343Z,48.02
2022-10-23T12:53:07.616Z,48.29
2022-10-23T12:56:07.438Z,49.02
2022-10-23T12:58:35.836Z,50.14
2022-10-23T13:01:07.753Z,50.16
2022-10-23T13:03:38.124Z,50.14
2022-10-23T13:06:05.833Z,50.01
2022-10-23T13:08:46.808Z,50.27
2022-10-23T13:11:20.651Z,49.49
2022-10-23T13:13:49.421Z,49.39
2022-10-23T13:16:24.456Z,49.62
2022-10-23T13:18:53.569Z,48.58
2022-10-23T13:21:28.760Z,48.12
2022-10-23T13:23:56.392Z,47.97
2022-10-23T13:26:45.209Z,47.91
2022-10-23T13:29:29.652Z,47.76
2022-10-23T13:31:57.911Z,47.61
2022-10-23T13:34:30.914Z,47.30
2022-10-23T13:37:21.726Z,47.50
2022-10-23T13:40:21.025Z,47.66
2022-10-23T13:42:54.976Z,48.06
2022-10-23T13:45:27.005Z,48.45
2022-10-23T13:47:54.484Z,48.99
2022-10-23T13:50:21.757Z,48.66
2022-10-23T13:52:49.020Z,48.44
2022-10-23T13:55:25.468Z,48.92
2022-10-23T13:57:52.875Z,48.79
2022-10-23T14:00:20.267Z,48.65
2022-10-23T14:02:47.692Z,48.89
2022-10-23T14:05:15.184Z,48.89
2022-10-23T14:07:42.861Z,48.69
2022-10-23T14:10:10.487Z,48.50
2022-10-23T14:12:44.407Z,48.60
2022-10-23T14:15:12.208Z,48.51
2022-10-23T14:17:39.496Z,48.89
2022-10-23T14:20:08.612Z,48.68
2022-10-23T14:22:36.008Z,48.86
2022-10-23T14:25:03.984Z,49.19
2022-10-23T14:27:31.600Z,49.34
2022-10-23T14:29:59.416Z,49.50
2022-10-23T14:32:26.880Z,49.79
2022-10-23T14:34:57.117Z,50.13
2022-10-23T14:37:24.401Z,50.30
2022-10-23T14:39:51.657Z,50.61
2022-10-23T14:42:19.740Z,51.07
2022-10-23T14:44:49.354Z,51.38
2022-10-23T14:47:21.240Z,51.45
2022-10-23T14:49:53.166Z,51.97
2022-10-23T14:52:20.684Z,52.34
2022-10-23T14:54:48.116Z,52.20
2022-10-23T14:57:17.869Z,52.33
2022-10-23T14:59:45.145Z,52.65
2022-10-23T15:02:12.814Z,53.25
2022-10-23T15:04:40.464Z,52.81
2022-10-23T15:07:08.885Z,52.97
2022-10-23T15:09:36.695Z,53.08
2022-10-23T15:12:05.413Z,53.23
2022-10-23T15:14:33.062Z,52.94
2022-10-23T15:17:00.390Z,53.20
2022-10-23T15:19:27.995Z,53.10
2022-10-23T15:21:55.363Z,53.51
2022-10-23T15:24:24.563Z,53.58
2022-10-23T15:26:52.047Z,53.49
2022-10-23T15:29:20.058Z,52.98
2022-10-23T15:31:58.299Z,53.48
2022-10-23T15:34:29.416Z,52.82
2022-10-23T15:36:58.185Z,52.58
2022-10-23T15:39:35.598Z,52.30
2022-10-23T15:42:06.778Z,52.63
2022-10-23T15:44:34.615Z,52.59
2022-10-23T15:47:01.993Z,52.24
2022-10-23T15:49:30.047Z,52.46
2022-10-23T15:51:57.873Z,51.98
2022-10-23T15:54:28.123Z,51.24
2022-10-23T15:56:58.389Z,51.33
2022-10-23T15:59:26.888Z,51.79
2022-10-23T16:01:55.532Z,51.70
2022-10-23T16:04:23.736Z,52.32
2022-10-23T16:06:51.028Z,52.19
2022-10-23T16:09:18.363Z,52.51
2022-10-23T16:11:47.082Z,51.96
2022-10-23T16:14:17.439Z,52.49
2022-10-23T16:16:45.093Z,52.28
2022-10-23T16:19:13.002Z,52.44
2022-10-23T16:21:41.344Z,51.96
2022-10-23T16:24:09.858Z,51.80
2022-10-23T16:26:39.035Z,52.46
2022-10-23T16:29:09.450Z,52.53
2022-10-23T16:31:36.892Z,52.38
2022-10-23T16:34:05.754Z,52.75
2022-10-23T16:36:34.845Z,52.85
2022-10-23T16:39:03.812Z,53.01
2022-10-23T16:41:31.958Z,52.95
2022-10-23T16:43:59.283Z,53.22
2022-10-23T16:46:26.997Z,53.36
2022-10-23T16:48:54.304Z,53.16
2022-10-23T16:51:26.763Z,53.40
2022-10-23T16:53:55.241Z,53.17
2022-10-23T16:56:28.686Z,53.41
2022-10-23T17:01:46.464Z,54.13
2022-10-23T17:04:13.880Z,53.75
2022-10-23T17:06:41.381Z,53.41
2022-10-23T17:09:08.701Z,53.31
2022-10-23T17:11:40.499Z,53.49
2022-10-23T17:14:15.961Z,53.34
2022-10-23T17:16:52.608Z,53.64
2022-10-23T17:19:45.222Z,53.48
2022-10-23T17:22:13.206Z,53.82
2022-10-23T17:24:44.206Z,53.92
2022-10-23T17:27:14.008Z,53.89
2022-10-23T17:29:41.298Z,54.23
2022-10-23T17:32:08.639Z,45.48
2022-10-23T17:34:36.950Z,41.77
2022-10-23T17:37:04.552Z,38.38
2022-10-23T17:39:31.813Z,37.32
2022-10-23T17:42:00.106Z,35.68
2022-10-23T17:44:29.115Z,35.42
2022-10-23T17:46:56.471Z,34.74
2022-10-23T17:49:25.406Z,33.91
2022-10-23T17:51:58.291Z,33.13
2022-10-23T17:54:28.406Z,32.31
2022-10-23T17:56:56.037Z,32.29
2022-10-23T17:59:23.935Z,32.14
2022-10-23T18:01:51.477Z,32.27
2022-10-23T18:04:20.846Z,32.12
2022-10-23T18:06:53.269Z,32.49
2022-10-23T18:09:23.057Z,32.14
2022-10-23T18:11:50.732Z,32.14
2022-10-23T18:14:21.520Z,32.64
2022-10-23T18:16:49.853Z,33.31
2022-10-23T18:19:18.714Z,33.80
2022-10-23T18:21:47.866Z,34.73
2022-10-23T18:24:16.325Z,35.46
2022-10-23T18:26:44.687Z,34.79
2022-10-23T18:29:13.556Z,33.72
2022-10-23T18:31:42.495Z,34.32
2022-10-23T18:34:25.242Z,34.45
2022-10-23T18:36:54.812Z,34.66
2022-10-23T18:39:25.897Z,34.08
2022-10-23T18:41:57.723Z,34.70
2022-10-23T18:44:29.261Z,33.66
2022-10-23T18:46:59.457Z,33.25
2022-10-23T18:49:27.881Z,33.73
2022-10-23T18:51:55.597Z,33.41
2022-10-23T18:54:23.029Z,33.59
2022-10-23T18:56:50.821Z,33.41
2022-10-23T18:59:22.249Z,33.51
2022-10-23T19:01:50.782Z,33.96
2022-10-23T19:04:20.417Z,34.38
2022-10-23T19:06:50.273Z,34.57
2022-10-23T19:09:18.221Z,35.16
2022-10-23T19:11:46.018Z,34.94
2022-10-23T19:14:14.127Z,34.85
2022-10-23T19:17:29.684Z,34.94
2022-10-23T19:20:14.945Z,35.32
2022-10-23T19:22:47.342Z,35.14
2022-10-23T19:25:25.529Z,35.08
2022-10-23T19:27:55.486Z,35.31
2022-10-23T19:30:24.984Z,35.85
2022-10-23T19:32:52.584Z,36.15
2022-10-23T19:35:22.417Z,36.51
2022-10-23T19:37:50.827Z,36.74
2022-10-23T19:40:18.609Z,36.70
2022-10-23T19:42:46.012Z,36.69
2022-10-23T19:45:16.464Z,36.49
2022-10-23T19:47:44.750Z,36.37
2022-10-23T19:50:12.297Z,36.21
2022-10-23T19:52:39.728Z,36.21
2022-10-23T19:55:08.930Z,36.39
2022-10-23T19:57:37.159Z,36.47
2022-10-23T20:00:08.276Z,36.72
2022-10-23T20:05:23.241Z,38.20
2022-10-23T20:07:51.386Z,38.85
2022-10-23T20:10:18.898Z,39.87
2022-10-23T20:12:56.356Z,40.25
2022-10-23T20:15:29.845Z,40.60
2022-10-23T20:17:58.614Z,40.88
2022-10-23T20:20:25.872Z,40.85
2022-10-23T20:22:55.296Z,40.98
2022-10-23T20:25:22.850Z,41.13
2022-10-23T20:27:52.505Z,41.45
2022-10-23T20:30:19.797Z,41.68
2022-10-23T20:32:48.477Z,41.94
2022-10-23T20:35:16.207Z,42.26
2022-10-23T20:37:43.734Z,42.45
2022-10-23T20:40:11.476Z,42.32
2022-10-23T20:42:38.810Z,42.27
2022-10-23T20:45:07.209Z,42.08
2022-10-23T20:47:34.597Z,42.16
2022-10-23T20:50:01.852Z,41.71
2022-10-23T20:52:30.144Z,41.50
2022-10-23T20:54:57.527Z,41.86
2022-10-23T20:57:24.920Z,42.18
2022-10-23T20:59:53.714Z,41.94
2022-10-23T21:02:21.909Z,42.03
2022-10-23T21:04:50.459Z,41.81
2022-10-23T21:07:18.315Z,41.72
2022-10-23T21:09:45.977Z,41.59
2022-10-23T21:12:13.333Z,41.59
2022-10-23T21:14:40.601Z,41.48
2022-10-23T21:17:08.873Z,42.22
2022-10-23T21:19:36.648Z,42.08
2022-10-23T21:22:04.018Z,42.09
2022-10-23T21:24:31.512Z,42.06
2022-10-23T21:26:58.829Z,42.23
2022-10-23T21:29:26.101Z,42.31
2022-10-23T21:32:01.489Z,42.19
2022-10-23T21:34:30.255Z,42.23
2022-10-23T21:37:14.740Z,42.06
2022-10-23T21:39:46.348Z,42.51
2022-10-23T21:42:15.275Z,42.13
2022-10-23T21:44:42.864Z,42.15
2022-10-23T21:47:10.257Z,42.02
2022-10-23T21:49:37.837Z,41.65
2022-10-23T21:52:05.450Z,41.56
2022-10-23T21:54:32.956Z,41.58
2022-10-23T21:57:00.247Z,41.67
2022-10-23T21:59:30.274Z,41.84
2022-10-23T22:01:59.405Z,42.79
2022-10-23T22:04:26.799Z,44.58
2022-10-23T22:06:54.057Z,44.90
2022-10-23T22:09:22.835Z,45.35
2022-10-23T22:11:53.275Z,45.98
2022-10-23T22:14:22.200Z,46.44
2022-10-23T22:16:49.914Z,45.83
2022-10-23T22:19:21.025Z,46.16
2022-10-23T22:21:50.315Z,46.66
2022-10-23T22:24:18.264Z,45.78
2022-10-23T22:26:54.499Z,45.96
2022-10-23T22:29:29.451Z,45.44
2022-10-23T22:31:58.307Z,45.40
2022-10-23T22:37:17.524Z,45.16
2022-10-23T22:39:44.786Z,45.34
2022-10-23T22:42:12.265Z,45.38
2022-10-23T22:44:40.411Z,44.92
2022-10-23T22:47:07.804Z,45.06
2022-10-23T22:49:35.150Z,44.80
2022-10-23T22:52:02.415Z,44.58
2022-10-23T22:54:31.403Z,44.45
2022-10-23T22:56:58.883Z,44.04
2022-10-23T22:59:26.979Z,44.44
2022-10-23T23:01:54.551Z,44.30
2022-10-23T23:04:38.573Z,44.26
2022-10-23T23:07:12.577Z,44.25
2022-10-23T23:09:45.050Z,44.03
2022-10-23T23:12:16.007Z,44.29
2022-10-23T23:14:43.645Z,44.09
2022-10-23T23:17:12.279Z,43.84
2022-10-23T23:19:39.709Z,43.73
2022-10-23T23:22:07.087Z,43.64
2022-10-23T23:24:34.626Z,43.69
2022-10-23T23:27:02.216Z,43.54
2022-10-23T23:29:29.683Z,43.68
2022-10-23T23:31:57.229Z,43.39
2022-10-23T23:34:24.661Z,43.98
2022-10-23T23:36:52.040Z,43.81
2022-10-23T23:39:19.804Z,43.53
2022-10-23T23:41:47.101Z,43.86
2022-10-23T23:44:14.365Z,42.98
2022-10-23T23:46:41.653Z,43.11
2022-10-23T23:49:08.932Z,43.35
2022-10-23T23:51:37.191Z,43.26
2022-10-23T23:54:04.537Z,43.25
2022-10-23T23:56:32.024Z,43.03
2022-10-23T23:58:59.311Z,43.32
